createdAt,value
2023-03-16T00:02:19.717Z,1.60
2023-03-16T00:04:48.274Z,2.55
2023-03-16T00:07:17.180Z,1.65
2023-03-16T00:09:45.331Z,1.15
2023-03-16T00:12:16.371Z,1.15
2023-03-16T00:14:46.395Z,4.00
2023-03-16T00:17:20.507Z,1.35
2023-03-16T00:19:55.438Z,1.75
2023-03-16T00:22:26.113Z,2.25
2023-03-16T00:24:55.121Z,3.03
2023-03-16T00:27:25.002Z,3.92
2023-03-16T00:29:57.129Z,2.92
2023-03-16T00:32:33.375Z,3.50
2023-03-16T00:35:04.078Z,2.38
2023-03-16T00:37:33.780Z,0.85
2023-03-16T00:40:02.018Z,7.40
2023-03-16T00:42:34.376Z,2.25
2023-03-16T00:45:02.602Z,1.38
2023-03-16T00:47:35.395Z,1.65
2023-03-16T00:50:04.553Z,1.35
2023-03-16T00:52:35.518Z,1.40
2023-03-16T00:55:05.002Z,0.90
2023-03-16T00:57:33.027Z,1.30
2023-03-16T01:00:06.538Z,2.33
2023-03-16T01:05:06.265Z,1.13
2023-03-16T01:07:36.416Z,0.80
2023-03-16T01:10:05.394Z,2.75
2023-03-16T01:12:34.131Z,1.83
2023-03-16T01:15:02.964Z,5.47
2023-03-16T01:17:35.248Z,4.13
2023-03-16T01:20:08.304Z,0.85
2023-03-16T01:22:36.775Z,2.38
2023-03-16T01:25:06.009Z,1.02
2023-03-16T01:27:33.926Z,1.98
2023-03-16T01:30:02.667Z,2.47
2023-03-16T01:32:32.051Z,2.17
2023-03-16T01:35:04.165Z,1.48
2023-03-16T01:37:34.376Z,2.67
2023-03-16T01:40:14.263Z,1.13
2023-03-16T01:42:48.318Z,0.82
2023-03-16T01:45:54.595Z,0.60
2023-03-16T01:48:26.387Z,1.10
2023-03-16T01:50:57.027Z,2.05
2023-03-16T01:53:26.890Z,2.13
2023-03-16T01:55:55.578Z,1.52
2023-03-16T01:58:25.119Z,1.98
2023-03-16T02:00:54.203Z,2.08
2023-03-16T02:03:23.322Z,3.53
2023-03-16T02:06:16.788Z,4.30
2023-03-16T02:08:50.660Z,1.92
2023-03-16T02:11:18.803Z,2.83
2023-03-16T02:14:09.421Z,3.13
2023-03-16T02:16:38.526Z,3.10
2023-03-16T02:19:12.758Z,3.85
2023-03-16T02:21:56.179Z,2.88
2023-03-16T02:24:24.487Z,5.53
2023-03-16T02:26:55.810Z,1.88
2023-03-16T02:29:45.181Z,3.75
2023-03-16T02:32:15.507Z,1.63
2023-03-16T02:34:43.881Z,2.92
2023-03-16T02:37:14.033Z,3.15
2023-03-16T02:39:46.672Z,3.22
2023-03-16T02:42:24.751Z,5.75
2023-03-16T02:44:58.219Z,2.70
2023-03-16T02:47:40.329Z,4.07
2023-03-16T02:50:09.907Z,1.80
2023-03-16T02:52:39.284Z,1.73
2023-03-16T02:55:08.175Z,1.55
2023-03-16T02:57:36.329Z,1.75
2023-03-16T03:00:17.169Z,2.42
2023-03-16T03:02:47.249Z,2.00
2023-03-16T03:05:16.133Z,1.95
2023-03-16T03:07:44.442Z,3.08
2023-03-16T03:10:12.643Z,3.88
2023-03-16T03:12:40.800Z,2.72
2023-03-16T03:15:12.075Z,3.83
2023-03-16T03:17:51.458Z,1.95
2023-03-16T03:20:20.022Z,2.42
2023-03-16T03:22:50.122Z,2.97
2023-03-16T03:25:20.586Z,6.45
2023-03-16T03:27:50.301Z,2.13
2023-03-16T03:30:24.667Z,2.63
2023-03-16T03:32:53.027Z,2.70
2023-03-16T03:35:22.603Z,4.43
2023-03-16T03:37:51.299Z,6.22
2023-03-16T03:40:21.080Z,4.00
2023-03-16T03:42:56.453Z,4.55
2023-03-16T03:45:25.867Z,3.42
2023-03-16T03:47:55.441Z,3.28
2023-03-16T03:50:25.489Z,3.80
2023-03-16T03:53:05.927Z,1.75
2023-03-16T03:55:41.859Z,2.90
2023-03-16T03:58:10.440Z,5.60
2023-03-16T04:00:39.059Z,3.22
2023-03-16T04:03:07.399Z,3.03
2023-03-16T04:05:43.506Z,2.90
2023-03-16T04:08:12.768Z,2.97
2023-03-16T04:10:41.277Z,4.47
2023-03-16T04:13:10.128Z,4.05
2023-03-16T04:15:40.156Z,4.50
2023-03-16T04:18:20.869Z,7.20
2023-03-16T04:20:48.911Z,3.67
2023-03-16T04:23:21.529Z,3.08
2023-03-16T04:26:41.676Z,3.20
2023-03-16T04:29:10.000Z,6.70
2023-03-16T04:31:38.705Z,5.35
2023-03-16T04:34:07.324Z,5.65
2023-03-16T04:36:35.452Z,6.32
2023-03-16T04:39:04.983Z,3.85
2023-03-16T04:41:33.571Z,3.97
2023-03-16T04:44:10.413Z,5.00
2023-03-16T04:46:39.105Z,3.60
2023-03-16T04:49:10.860Z,4.22
2023-03-16T04:51:42.659Z,4.93
2023-03-16T04:54:17.062Z,5.18
2023-03-16T04:56:46.468Z,2.78
2023-03-16T04:59:35.833Z,3.97
2023-03-16T05:02:27.638Z,3.83
2023-03-16T05:04:59.909Z,3.00
2023-03-16T05:07:27.940Z,2.63
2023-03-16T05:09:57.521Z,5.18
2023-03-16T05:12:25.949Z,3.67
2023-03-16T05:15:00.321Z,4.18
2023-03-16T05:17:43.340Z,6.55
2023-03-16T05:20:16.208Z,7.22
2023-03-16T05:22:50.101Z,3.97
2023-03-16T05:25:35.109Z,4.00
2023-03-16T05:28:07.061Z,2.85
2023-03-16T05:30:50.246Z,5.50
2023-03-16T05:33:23.440Z,3.53
2023-03-16T05:35:58.269Z,6.78
2023-03-16T05:38:27.750Z,4.05
2023-03-16T05:41:02.525Z,3.63
2023-03-16T05:44:04.711Z,3.53
2023-03-16T05:46:59.046Z,5.28
2023-03-16T05:49:28.003Z,8.40
2023-03-16T05:51:56.768Z,4.00
2023-03-16T05:54:25.068Z,5.63
2023-03-16T05:56:54.785Z,4.10
2023-03-16T05:59:25.401Z,7.45
2023-03-16T06:01:57.712Z,5.25
2023-03-16T06:04:26.037Z,3.42
2023-03-16T06:06:54.917Z,5.05
2023-03-16T06:09:27.986Z,4.10
2023-03-16T06:11:56.203Z,5.45
2023-03-16T06:14:25.418Z,5.38
2023-03-16T06:16:56.373Z,4.55
2023-03-16T06:19:24.615Z,5.43
2023-03-16T06:21:58.628Z,4.90
2023-03-16T06:24:27.393Z,8.23
2023-03-16T06:26:55.669Z,4.63
2023-03-16T06:29:30.026Z,5.88
2023-03-16T06:31:58.298Z,5.78
2023-03-16T06:34:27.022Z,4.65
2023-03-16T06:36:56.526Z,4.45
2023-03-16T06:39:24.722Z,6.32
2023-03-16T06:41:53.697Z,4.32
2023-03-16T06:44:22.313Z,6.95
2023-03-16T06:47:08.057Z,3.88
2023-03-16T06:49:36.880Z,4.53
2023-03-16T06:52:14.046Z,4.65
2023-03-16T06:54:42.469Z,5.05
2023-03-16T06:57:11.716Z,4.07
2023-03-16T06:59:40.312Z,3.65
2023-03-16T07:02:14.575Z,5.22
2023-03-16T07:04:44.724Z,4.70
2023-03-16T07:07:12.768Z,2.67
2023-03-16T07:09:42.221Z,4.63
2023-03-16T07:12:11.212Z,4.18
2023-03-16T07:14:39.330Z,3.90
2023-03-16T07:17:10.510Z,6.25
2023-03-16T07:19:39.067Z,5.30
2023-03-16T07:22:07.248Z,5.50
2023-03-16T07:24:39.380Z,6.40
2023-03-16T07:27:07.683Z,5.45
2023-03-16T07:29:35.909Z,7.07
2023-03-16T07:32:06.106Z,5.82
2023-03-16T07:34:38.951Z,5.28
2023-03-16T07:37:09.575Z,6.10
2023-03-16T07:39:38.461Z,6.97
2023-03-16T07:42:11.771Z,5.35
2023-03-16T07:44:59.137Z,5.32
2023-03-16T07:47:28.753Z,5.07
2023-03-16T07:50:01.587Z,5.45
2023-03-16T07:52:30.930Z,7.47
2023-03-16T07:55:02.641Z,9.15
2023-03-16T07:57:31.607Z,7.72
2023-03-16T08:00:00.035Z,5.68
2023-03-16T08:02:28.287Z,7.60
2023-03-16T08:04:56.390Z,5.28
2023-03-16T08:07:25.823Z,4.15
2023-03-16T08:10:10.400Z,7.55
2023-03-16T08:12:54.687Z,9.32
2023-03-16T08:15:22.996Z,7.82
2023-03-16T08:17:54.378Z,6.28
2023-03-16T08:20:26.348Z,5.55
2023-03-16T08:22:55.351Z,4.32
2023-03-16T08:25:27.961Z,4.93
2023-03-16T08:28:06.290Z,5.30
2023-03-16T08:30:35.386Z,4.68
2023-03-16T08:33:23.142Z,4.38
2023-03-16T08:35:53.142Z,4.20
2023-03-16T08:38:21.496Z,3.42
2023-03-16T08:40:52.346Z,3.85
2023-03-16T08:43:24.105Z,2.53
2023-03-16T08:45:54.040Z,5.00
2023-03-16T08:48:27.107Z,4.38
2023-03-16T08:50:55.457Z,4.97
2023-03-16T08:53:23.651Z,3.00
2023-03-16T08:55:52.000Z,3.95
2023-03-16T08:58:20.993Z,3.20
2023-03-16T09:00:50.609Z,2.83
2023-03-16T09:03:18.769Z,2.83
2023-03-16T09:05:47.836Z,4.22
2023-03-16T09:08:15.864Z,4.38
2023-03-16T09:10:44.991Z,2.83
2023-03-16T09:13:14.378Z,2.78
2023-03-16T09:15:43.169Z,3.33
2023-03-16T09:18:12.322Z,2.33
2023-03-16T09:20:42.796Z,4.07
2023-03-16T09:23:11.876Z,2.47
2023-03-16T09:25:40.774Z,3.55
2023-03-16T09:28:09.527Z,2.60
2023-03-16T09:30:38.185Z,1.73
2023-03-16T09:33:06.521Z,1.65
2023-03-16T09:35:39.679Z,3.13
2023-03-16T09:38:14.156Z,3.00
2023-03-16T09:40:49.194Z,2.85
2023-03-16T09:43:39.844Z,2.70
2023-03-16T09:46:24.384Z,2.55
2023-03-16T09:48:53.297Z,4.45
2023-03-16T09:51:51.888Z,3.38
2023-03-16T09:54:57.342Z,2.83
2023-03-16T09:57:31.788Z,4.45
2023-03-16T10:00:14.497Z,1.95
2023-03-16T10:02:46.814Z,2.00
2023-03-16T10:05:17.730Z,3.63
2023-03-16T10:07:54.626Z,3.28
2023-03-16T10:10:33.700Z,1.48
2023-03-16T10:13:03.637Z,2.08
2023-03-16T10:15:36.744Z,2.60
2023-03-16T10:18:18.096Z,2.72
2023-03-16T10:20:49.369Z,1.92
2023-03-16T10:23:24.537Z,5.05
2023-03-16T10:25:57.614Z,2.60
2023-03-16T10:28:28.966Z,2.50
2023-03-16T10:31:00.000Z,3.08
2023-03-16T10:33:36.848Z,3.88
2023-03-16T10:36:32.408Z,3.75
2023-03-16T10:39:08.246Z,3.20
2023-03-16T10:41:43.321Z,2.05
2023-03-16T10:44:14.919Z,2.15
2023-03-16T10:46:59.710Z,2.47
2023-03-16T10:49:36.354Z,2.65
2023-03-16T10:52:13.718Z,2.30
2023-03-16T10:54:49.858Z,5.65
2023-03-16T10:57:21.269Z,5.63
2023-03-16T11:00:23.517Z,3.83
2023-03-16T11:02:54.591Z,2.88
2023-03-16T11:05:35.327Z,3.05
2023-03-16T11:08:12.628Z,2.42
2023-03-16T11:10:55.187Z,3.75
2023-03-16T11:16:00.533Z,3.78
2023-03-16T11:18:31.616Z,3.10
2023-03-16T11:21:12.954Z,2.90
2023-03-16T11:23:48.605Z,2.78
2023-03-16T11:26:27.943Z,4.30
2023-03-16T11:29:11.276Z,7.05
2023-03-16T11:31:55.455Z,4.53
2023-03-16T11:34:30.728Z,4.65
2023-03-16T11:37:10.324Z,3.05
2023-03-16T11:40:10.125Z,1.13
2023-03-16T11:42:50.246Z,4.18
2023-03-16T11:45:34.536Z,1.65
2023-03-16T11:48:17.575Z,2.40
2023-03-16T11:51:07.132Z,2.35
2023-03-16T11:53:52.836Z,4.40
2023-03-16T11:56:40.165Z,3.42
2023-03-16T11:59:37.178Z,3.88
2023-03-16T12:02:23.462Z,2.75
2023-03-16T12:05:06.469Z,2.42
2023-03-16T12:08:12.128Z,2.95
2023-03-16T12:11:18.614Z,3.05
2023-03-16T12:14:21.744Z,2.55
2023-03-16T12:17:05.679Z,2.10
2023-03-16T12:20:14.220Z,2.55
2023-03-16T12:22:51.816Z,2.08
2023-03-16T12:25:27.507Z,1.90
2023-03-16T12:27:59.570Z,2.67
2023-03-16T12:30:30.562Z,2.47
2023-03-16T12:33:15.145Z,2.40
2023-03-16T12:35:43.739Z,2.85
2023-03-16T12:38:53.588Z,2.17
2023-03-16T12:41:52.945Z,1.88
2023-03-16T12:44:37.157Z,2.08
2023-03-16T12:47:08.319Z,3.08
2023-03-16T12:49:38.497Z,4.90
2023-03-16T12:52:11.476Z,3.75
2023-03-16T12:55:08.058Z,1.77
2023-03-16T12:57:37.586Z,1.42
2023-03-16T13:00:10.477Z,2.08
2023-03-16T13:02:45.833Z,1.90
2023-03-16T13:05:18.596Z,3.60
2023-03-16T13:07:50.110Z,3.50
2023-03-16T13:10:21.210Z,2.80
2023-03-16T13:12:51.766Z,3.22
2023-03-16T13:15:23.046Z,2.45
2023-03-16T13:18:24.984Z,3.47
2023-03-16T13:20:55.904Z,3.40
2023-03-16T13:23:26.266Z,1.42
2023-03-16T13:26:18.751Z,6.75
2023-03-16T13:28:52.927Z,2.70
2023-03-16T13:31:37.875Z,3.80
2023-03-16T13:34:08.566Z,1.73
2023-03-16T13:36:38.041Z,3.60
2023-03-16T13:39:13.582Z,2.42
2023-03-16T13:41:43.445Z,3.58
2023-03-16T13:44:15.600Z,3.70
2023-03-16T13:46:47.964Z,4.05
2023-03-16T13:49:18.277Z,2.07
2023-03-16T13:51:48.640Z,1.70
2023-03-16T13:54:24.362Z,2.05
2023-03-16T13:57:03.966Z,2.33
2023-03-16T13:59:32.085Z,2.20
2023-03-16T14:02:02.449Z,3.40
2023-03-16T14:04:34.109Z,3.47
2023-03-16T14:07:03.896Z,13.43
2023-03-16T14:09:35.352Z,4.82
2023-03-16T14:12:04.347Z,3.33
2023-03-16T14:14:42.523Z,2.40
2023-03-16T14:17:17.214Z,2.25
2023-03-16T14:19:57.451Z,2.72
2023-03-16T14:22:38.219Z,3.58
2023-03-16T14:25:07.233Z,2.40
2023-03-16T14:27:41.271Z,2.58
2023-03-16T14:30:30.364Z,3.40
2023-03-16T14:33:02.067Z,3.47
2023-03-16T14:35:54.676Z,2.90
2023-03-16T14:38:33.623Z,2.60
2023-03-16T14:41:09.001Z,3.35
2023-03-16T14:43:49.111Z,3.22
2023-03-16T14:46:24.915Z,2.97
2023-03-16T14:49:15.454Z,2.35
2023-03-16T14:51:46.080Z,2.63
2023-03-16T14:54:17.304Z,2.03
2023-03-16T14:57:05.901Z,4.03
2023-03-16T14:59:34.655Z,3.00
2023-03-16T15:02:07.439Z,3.83
2023-03-16T15:04:38.829Z,4.63
2023-03-16T15:07:22.531Z,2.42
2023-03-16T15:09:52.346Z,2.28
2023-03-16T15:12:25.146Z,2.35
2023-03-16T15:15:11.921Z,3.55
2023-03-16T15:17:40.016Z,3.83
2023-03-16T15:20:08.862Z,5.22
2023-03-16T15:22:39.507Z,5.63
2023-03-16T15:25:24.402Z,6.32
2023-03-16T15:27:54.270Z,3.40
2023-03-16T15:30:26.401Z,3.00
2023-03-16T15:32:54.699Z,5.20
2023-03-16T15:35:23.615Z,2.58
2023-03-16T15:37:52.621Z,8.60
2023-03-16T15:40:27.370Z,4.30
2023-03-16T15:42:55.995Z,9.93
2023-03-16T15:45:25.527Z,6.00
2023-03-16T15:47:54.606Z,3.70
2023-03-16T15:50:24.902Z,4.60
2023-03-16T15:53:00.813Z,8.07
2023-03-16T15:55:34.788Z,5.25
2023-03-16T15:58:05.465Z,5.50
2023-03-16T16:00:36.758Z,3.75
2023-03-16T16:03:06.742Z,6.15
2023-03-16T16:05:35.524Z,6.95
2023-03-16T16:08:04.199Z,7.07
2023-03-16T16:10:32.589Z,3.97
2023-03-16T16:13:02.116Z,6.50
2023-03-16T16:15:35.624Z,7.40
2023-03-16T16:18:32.083Z,4.80
2023-03-16T16:21:01.675Z,8.00
2023-03-16T16:23:32.576Z,6.63
2023-03-16T16:26:11.376Z,7.55
2023-03-16T16:28:39.493Z,6.40
2023-03-16T16:31:13.484Z,5.72
2023-03-16T16:33:42.707Z,8.77
2023-03-16T16:36:17.921Z,6.85
2023-03-16T16:38:46.618Z,5.75
2023-03-16T16:41:31.176Z,7.35
2023-03-16T16:44:05.478Z,10.05
2023-03-16T16:46:37.459Z,17.40
2023-03-16T16:49:13.759Z,12.65
2023-03-16T16:51:42.885Z,16.02
2023-03-16T16:54:25.681Z,19.02
2023-03-16T16:56:55.751Z,14.83
2023-03-16T16:59:30.419Z,26.77
2023-03-16T17:02:01.081Z,26.83
2023-03-16T17:04:30.282Z,14.52
2023-03-16T17:07:02.927Z,21.65
2023-03-16T17:09:31.950Z,23.55
2023-03-16T17:12:01.576Z,17.10
2023-03-16T17:14:31.641Z,11.30
2023-03-16T17:17:03.249Z,10.30
2023-03-16T17:19:31.763Z,8.75
2023-03-16T17:22:01.636Z,7.55
2023-03-16T17:24:33.118Z,14.32
2023-03-16T17:27:05.102Z,18.48
2023-03-16T17:29:34.999Z,22.83
2023-03-16T17:32:13.208Z,25.92
2023-03-16T17:34:41.890Z,36.63
2023-03-16T17:37:19.652Z,45.40
2023-03-16T17:39:51.468Z,82.07
2023-03-16T17:42:20.559Z,75.47
2023-03-16T17:44:51.428Z,43.58
2023-03-16T17:47:22.901Z,74.85
2023-03-16T17:49:51.534Z,84.32
2023-03-16T17:52:23.539Z,84.35
2023-03-16T17:54:53.841Z,76.45
2023-03-16T17:57:40.232Z,62.85
2023-03-16T18:00:37.313Z,45.53
2023-03-16T18:03:13.190Z,35.90
2023-03-16T18:05:42.941Z,22.83
2023-03-16T18:08:28.152Z,18.70
2023-03-16T18:11:01.091Z,15.27
2023-03-16T18:13:37.479Z,10.45
2023-03-16T18:16:07.662Z,10.15
2023-03-16T18:18:41.815Z,14.77
2023-03-16T18:21:21.976Z,9.60
2023-03-16T18:23:50.855Z,16.83
2023-03-16T18:26:19.873Z,11.68
2023-03-16T18:28:48.578Z,8.10
2023-03-16T18:31:23.907Z,11.05
2023-03-16T18:33:56.309Z,9.07
2023-03-16T18:36:36.617Z,9.82
2023-03-16T18:39:12.160Z,9.65
2023-03-16T18:41:41.746Z,8.00
2023-03-16T18:44:19.114Z,9.27
2023-03-16T18:46:49.075Z,11.02
2023-03-16T18:49:22.959Z,8.68
2023-03-16T18:51:53.589Z,9.02
2023-03-16T18:54:24.605Z,8.50
2023-03-16T18:56:54.007Z,9.05
2023-03-16T18:59:21.978Z,8.88
2023-03-16T19:01:50.141Z,7.65
2023-03-16T19:04:25.704Z,10.65
2023-03-16T19:06:55.016Z,9.88
2023-03-16T19:09:25.889Z,9.75
2023-03-16T19:11:54.009Z,11.73
2023-03-16T19:14:31.952Z,13.52
2023-03-16T19:17:00.268Z,12.45
2023-03-16T19:19:28.607Z,9.65
2023-03-16T19:21:59.716Z,8.90
2023-03-16T19:24:54.711Z,11.68
2023-03-16T19:27:25.872Z,18.80
2023-03-16T19:29:54.898Z,28.70
2023-03-16T19:32:23.680Z,37.55
2023-03-16T19:34:52.335Z,18.35
2023-03-16T19:37:20.976Z,43.92
2023-03-16T19:39:49.175Z,35.97
2023-03-16T19:42:25.983Z,39.50
2023-03-16T19:44:54.666Z,32.60
2023-03-16T19:47:28.143Z,24.77
2023-03-16T19:52:24.581Z,36.15
2023-03-16T19:54:52.772Z,37.17
2023-03-16T19:57:21.285Z,41.40
2023-03-16T19:59:54.820Z,42.80
2023-03-16T20:02:34.562Z,27.45
2023-03-16T20:05:02.775Z,25.92
2023-03-16T20:07:34.697Z,23.88
2023-03-16T20:10:06.479Z,25.80
2023-03-16T20:12:38.651Z,28.77
2023-03-16T20:15:07.445Z,20.00
2023-03-16T20:17:35.893Z,21.33
2023-03-16T20:20:16.476Z,17.98
2023-03-16T20:22:45.046Z,15.32
2023-03-16T20:25:13.136Z,17.52
2023-03-16T20:27:42.363Z,16.17
2023-03-16T20:30:17.603Z,16.80
2023-03-16T20:32:47.631Z,16.45
2023-03-16T20:35:19.265Z,22.65
2023-03-16T20:37:47.904Z,20.25
2023-03-16T20:40:16.976Z,32.63
2023-03-16T20:42:45.228Z,17.88
2023-03-16T20:45:23.899Z,16.15
2023-03-16T20:47:52.430Z,18.38
2023-03-16T20:50:29.344Z,18.77
2023-03-16T20:52:57.693Z,15.68
2023-03-16T20:55:29.443Z,12.15
2023-03-16T20:57:58.711Z,16.45
2023-03-16T21:00:35.881Z,14.88
2023-03-16T21:03:15.632Z,15.05
2023-03-16T21:05:44.996Z,12.07
2023-03-16T21:08:14.248Z,12.82
2023-03-16T21:10:45.520Z,15.57
2023-03-16T21:13:20.927Z,15.05
2023-03-16T21:15:52.352Z,14.52
2023-03-16T21:18:21.734Z,13.13
2023-03-16T21:20:51.399Z,13.00
2023-03-16T21:23:21.768Z,12.45
2023-03-16T21:26:14.783Z,11.10
2023-03-16T21:28:44.683Z,14.27
2023-03-16T21:31:19.536Z,17.20
2023-03-16T21:33:49.737Z,16.25
2023-03-16T21:36:22.050Z,13.07
2023-03-16T21:38:51.966Z,15.55
2023-03-16T21:41:20.245Z,18.80
2023-03-16T21:43:50.210Z,14.65
2023-03-16T21:46:23.865Z,18.55
2023-03-16T21:48:55.261Z,16.10
2023-03-16T21:51:28.723Z,15.70
2023-03-16T21:53:58.272Z,10.63
2023-03-16T21:56:26.892Z,11.27
2023-03-16T21:58:55.504Z,12.15
2023-03-16T22:01:29.662Z,27.45
2023-03-16T22:04:03.943Z,44.13
2023-03-16T22:06:33.876Z,52.70
2023-03-16T22:09:02.012Z,16.80
2023-03-16T22:11:31.534Z,18.70
2023-03-16T22:13:59.863Z,21.52
2023-03-16T22:16:31.924Z,15.25
2023-03-16T22:19:00.668Z,16.13
2023-03-16T22:21:37.654Z,21.60
2023-03-16T22:24:12.851Z,22.13
2023-03-16T22:26:41.908Z,17.17
2023-03-16T22:29:28.892Z,17.42
2023-03-16T22:32:04.612Z,21.73
2023-03-16T22:34:38.377Z,18.85
2023-03-16T22:37:06.981Z,19.02
2023-03-16T22:39:40.632Z,17.45
2023-03-16T22:44:51.985Z,17.65
2023-03-16T22:47:45.325Z,16.80
2023-03-16T22:50:18.369Z,19.35
2023-03-16T22:52:49.880Z,15.27
2023-03-16T22:55:25.235Z,18.25
2023-03-16T22:58:12.191Z,15.15
2023-03-16T23:00:40.745Z,13.05
2023-03-16T23:03:20.979Z,11.30
2023-03-16T23:05:50.694Z,13.77
2023-03-16T23:08:23.254Z,14.40
2023-03-16T23:10:53.621Z,12.57
2023-03-16T23:13:24.851Z,20.02
2023-03-16T23:15:53.853Z,27.40
2023-03-16T23:18:23.560Z,44.22
2023-03-16T23:20:52.418Z,40.95
2023-03-16T23:23:21.470Z,35.95
2023-03-16T23:25:49.824Z,33.85
2023-03-16T23:28:26.927Z,34.63
2023-03-16T23:30:55.265Z,31.92
2023-03-16T23:33:23.305Z,31.02
2023-03-16T23:35:51.397Z,28.10
2023-03-16T23:38:19.552Z,19.30
2023-03-16T23:40:47.714Z,17.35
2023-03-16T23:43:16.305Z,18.27
2023-03-16T23:45:46.924Z,15.93
2023-03-16T23:48:19.772Z,23.23
2023-03-16T23:50:54.558Z,11.40
2023-03-16T23:53:24.164Z,13.93
2023-03-16T23:55:52.749Z,12.55
2023-03-16T23:58:21.047Z,11.93
